createdAt,value
2022-09-15T00:00:29.975Z,21.69
2022-09-15T00:03:53.121Z,21.63
2022-09-15T00:06:55.422Z,21.61
2022-09-15T00:09:58.118Z,21.56
2022-09-15T00:13:00.320Z,21.48
2022-09-15T00:16:03.526Z,21.41
2022-09-15T00:19:06.769Z,21.29
2022-09-15T00:22:15.960Z,21.26
2022-09-15T00:25:19.213Z,21.24
2022-09-15T00:28:22.526Z,21.24
2022-09-15T00:31:25.553Z,21.27
2022-09-15T00:34:28.291Z,21.28
2022-09-15T00:37:30.579Z,21.13
2022-09-15T00:40:33.839Z,21.19
2022-09-15T00:43:48.487Z,21.03
2022-09-15T00:47:09.714Z,21.09
2022-09-15T00:50:16.829Z,21.10
2022-09-15T00:53:21.219Z,21.16
2022-09-15T00:56:24.685Z,21.18
2022-09-15T00:59:29.254Z,21.11
2022-09-15T01:02:33.247Z,21.19
2022-09-15T01:05:38.155Z,21.14
2022-09-15T01:08:44.602Z,21.13
2022-09-15T01:11:49.168Z,21.24
2022-09-15T01:14:51.576Z,21.17
2022-09-15T01:18:03.297Z,21.05
2022-09-15T01:21:14.747Z,21.00
2022-09-15T01:24:47.502Z,21.03
2022-09-15T01:27:55.865Z,20.99
2022-09-15T01:31:05.454Z,20.93
2022-09-15T01:34:16.260Z,21.02
2022-09-15T01:37:24.333Z,20.88
2022-09-15T01:40:29.813Z,20.86
2022-09-15T01:43:34.431Z,20.86
2022-09-15T01:46:41.201Z,21.04
2022-09-15T01:49:58.777Z,21.09
2022-09-15T01:53:02.978Z,21.12
2022-09-15T01:56:07.392Z,21.17
2022-09-15T01:59:09.721Z,21.14
2022-09-15T02:02:15.161Z,21.13
2022-09-15T02:05:36.138Z,21.25
2022-09-15T02:08:44.939Z,21.25
2022-09-15T02:11:58.055Z,21.16
2022-09-15T02:15:08.043Z,21.28
2022-09-15T02:18:14.224Z,21.35
2022-09-15T02:21:51.058Z,21.24
2022-09-15T02:25:05.793Z,21.21
2022-09-15T02:28:10.116Z,21.20
2022-09-15T02:31:15.315Z,21.16
2022-09-15T02:34:30.395Z,21.05
2022-09-15T02:37:33.450Z,21.01
2022-09-15T02:40:39.990Z,20.88
2022-09-15T02:43:46.688Z,21.00
2022-09-15T02:46:49.333Z,20.91
2022-09-15T02:49:51.904Z,20.99
2022-09-15T02:52:54.778Z,21.02
2022-09-15T02:55:57.994Z,21.05
2022-09-15T02:59:00.572Z,20.96
2022-09-15T03:02:06.324Z,20.91
2022-09-15T03:05:11.789Z,20.87
2022-09-15T03:08:14.334Z,20.88
2022-09-15T03:11:21.196Z,21.01
2022-09-15T03:14:26.462Z,20.90
2022-09-15T03:17:36.301Z,20.92
2022-09-15T03:20:40.707Z,21.09
2022-09-15T03:23:43.326Z,21.17
2022-09-15T03:26:46.403Z,21.00
2022-09-15T03:29:49.014Z,21.05
2022-09-15T03:32:53.989Z,20.95
2022-09-15T03:35:56.822Z,21.12
2022-09-15T03:38:59.479Z,20.91
2022-09-15T03:42:02.075Z,21.05
2022-09-15T03:45:05.719Z,20.86
2022-09-15T03:48:08.726Z,20.82
2022-09-15T03:51:11.614Z,20.84
2022-09-15T03:54:15.241Z,20.83
2022-09-15T03:57:18.326Z,20.87
2022-09-15T04:00:21.420Z,20.86
2022-09-15T04:03:24.059Z,20.70
2022-09-15T04:06:27.130Z,20.54
2022-09-15T04:09:30.605Z,20.57
2022-09-15T04:12:33.328Z,20.46
2022-09-15T04:15:38.535Z,20.60
2022-09-15T04:18:41.274Z,20.65
2022-09-15T04:21:45.614Z,20.63
2022-09-15T04:24:48.464Z,20.60
2022-09-15T04:27:51.002Z,20.76
2022-09-15T04:30:56.898Z,20.76
2022-09-15T04:33:59.584Z,20.79
2022-09-15T04:37:02.641Z,20.92
2022-09-15T04:40:05.633Z,20.99
2022-09-15T04:43:08.451Z,21.02
2022-09-15T04:46:12.555Z,20.85
2022-09-15T04:49:15.044Z,20.98
2022-09-15T04:52:17.573Z,21.05
2022-09-15T04:55:19.991Z,20.92
2022-09-15T04:58:22.550Z,20.91
2022-09-15T05:01:26.916Z,20.97
2022-09-15T05:04:32.240Z,20.92
2022-09-15T05:07:34.816Z,20.83
2022-09-15T05:10:38.226Z,20.94
2022-09-15T05:13:41.402Z,21.03
2022-09-15T05:16:44.057Z,20.97
2022-09-15T05:19:46.735Z,20.86
2022-09-15T05:22:49.526Z,20.76
2022-09-15T05:25:56.213Z,20.80
2022-09-15T05:29:01.291Z,20.80
2022-09-15T05:32:03.860Z,20.75
2022-09-15T05:35:06.892Z,20.69
2022-09-15T05:38:12.518Z,20.82
2022-09-15T05:41:16.969Z,20.81
2022-09-15T05:44:21.453Z,20.84
2022-09-15T05:47:24.352Z,20.77
2022-09-15T05:50:27.063Z,20.68
2022-09-15T05:53:30.947Z,20.76
2022-09-15T05:56:34.430Z,20.85
2022-09-15T05:59:39.226Z,21.13
2022-09-15T06:02:42.016Z,21.10
2022-09-15T06:05:44.653Z,21.23
2022-09-15T06:08:51.895Z,21.19
2022-09-15T06:11:57.584Z,21.21
2022-09-15T06:15:00.012Z,21.18
2022-09-15T06:18:02.886Z,21.16
2022-09-15T06:21:07.071Z,21.21
2022-09-15T06:24:12.244Z,21.16
2022-09-15T06:27:14.724Z,21.21
2022-09-15T06:30:17.910Z,21.27
2022-09-15T06:33:20.508Z,21.39
2022-09-15T06:36:24.881Z,21.47
2022-09-15T06:39:27.383Z,21.70
2022-09-15T06:42:29.995Z,21.88
2022-09-15T06:45:32.438Z,21.86
2022-09-15T06:48:38.351Z,21.94
2022-09-15T06:51:40.790Z,21.90
2022-09-15T06:54:43.326Z,22.01
2022-09-15T06:57:45.828Z,22.00
2022-09-15T07:00:48.329Z,22.25
2022-09-15T07:03:51.131Z,22.33
2022-09-15T07:06:53.656Z,22.43
2022-09-15T07:09:56.123Z,22.45
2022-09-15T07:13:01.261Z,22.41
2022-09-15T07:16:04.793Z,22.49
2022-09-15T07:19:07.459Z,22.57
2022-09-15T07:22:11.974Z,22.80
2022-09-15T07:25:14.510Z,23.06
2022-09-15T07:28:17.417Z,23.20
2022-09-15T07:31:20.757Z,23.32
2022-09-15T07:34:23.268Z,23.70
2022-09-15T07:37:25.748Z,24.44
2022-09-15T07:40:28.954Z,25.29
2022-09-15T07:43:31.790Z,26.14
2022-09-15T07:46:34.264Z,26.28
2022-09-15T07:49:36.796Z,26.71
2022-09-15T07:52:39.677Z,27.03
2022-09-15T07:55:42.239Z,27.07
2022-09-15T07:58:48.326Z,27.13
2022-09-15T08:01:51.304Z,27.61
2022-09-15T08:04:56.551Z,27.71
2022-09-15T08:07:58.792Z,27.66
2022-09-15T08:11:05.227Z,27.52
2022-09-15T08:14:07.646Z,27.44
2022-09-15T08:17:11.693Z,28.03
2022-09-15T08:20:14.367Z,28.99
2022-09-15T08:23:17.113Z,30.01
2022-09-15T08:26:19.588Z,30.66
2022-09-15T08:29:22.458Z,30.80
2022-09-15T08:32:25.676Z,30.85
2022-09-15T08:35:29.469Z,31.03
2022-09-15T08:38:32.385Z,31.14
2022-09-15T08:41:45.449Z,31.58
2022-09-15T08:44:47.690Z,32.03
2022-09-15T08:47:58.077Z,32.26
2022-09-15T08:51:04.475Z,32.87
2022-09-15T08:54:10.275Z,32.75
2022-09-15T08:57:14.902Z,32.94
2022-09-15T09:00:17.751Z,33.47
2022-09-15T09:03:23.507Z,34.20
2022-09-15T09:07:01.918Z,34.08
2022-09-15T09:10:07.049Z,34.10
2022-09-15T09:13:25.928Z,34.89
2022-09-15T09:16:40.900Z,35.32
2022-09-15T09:19:55.456Z,35.86
2022-09-15T09:23:00.064Z,36.22
2022-09-15T09:26:04.090Z,35.76
2022-09-15T09:29:18.746Z,35.35
2022-09-15T09:32:34.072Z,35.56
2022-09-15T09:35:45.030Z,35.01
2022-09-15T09:38:48.709Z,34.85
2022-09-15T09:41:51.091Z,34.53
2022-09-15T09:44:54.068Z,34.07
2022-09-15T09:48:01.813Z,33.45
2022-09-15T09:51:04.728Z,32.47
2022-09-15T09:54:12.728Z,31.68
2022-09-15T09:57:21.835Z,31.97
2022-09-15T10:00:36.505Z,32.12
2022-09-15T10:03:39.372Z,31.85
2022-09-15T10:06:41.718Z,31.71
2022-09-15T10:09:49.418Z,31.61
2022-09-15T10:12:55.760Z,31.60
2022-09-15T10:16:00.656Z,31.33
2022-09-15T10:19:03.016Z,31.09
2022-09-15T10:22:05.924Z,30.77
2022-09-15T10:25:44.175Z,30.44
2022-09-15T10:29:10.260Z,30.19
2022-09-15T10:32:25.174Z,30.20
2022-09-15T10:35:32.794Z,30.15
2022-09-15T10:38:43.412Z,29.47
2022-09-15T10:42:06.866Z,29.06
2022-09-15T10:45:09.296Z,28.77
2022-09-15T10:48:31.039Z,28.48
2022-09-15T10:51:56.625Z,28.50
2022-09-15T10:54:59.335Z,28.75
2022-09-15T10:58:13.735Z,28.75
2022-09-15T11:01:35.208Z,28.87
2022-09-15T11:04:57.298Z,28.80
2022-09-15T11:08:12.516Z,28.64
2022-09-15T11:11:41.702Z,28.54
2022-09-15T11:15:07.222Z,28.46
2022-09-15T11:18:12.054Z,28.46
2022-09-15T11:21:14.837Z,28.11
2022-09-15T11:24:35.089Z,27.82
2022-09-15T11:27:51.399Z,27.53
2022-09-15T11:31:01.043Z,27.33
2022-09-15T11:34:19.776Z,26.92
2022-09-15T11:37:52.577Z,26.61
2022-09-15T11:40:58.826Z,26.52
2022-09-15T11:44:16.721Z,26.35
2022-09-15T11:47:19.961Z,26.39
2022-09-15T11:50:25.156Z,26.37
2022-09-15T11:53:33.479Z,26.13
2022-09-15T11:56:38.887Z,26.08
2022-09-15T12:00:05.735Z,26.26
2022-09-15T12:03:24.556Z,26.56
2022-09-15T12:06:30.325Z,26.62
2022-09-15T12:09:33.355Z,26.68
2022-09-15T12:12:36.348Z,26.74
2022-09-15T12:15:39.104Z,26.78
2022-09-15T12:18:47.388Z,26.55
2022-09-15T12:21:59.591Z,26.25
2022-09-15T12:25:22.372Z,26.01
2022-09-15T12:28:25.082Z,25.85
2022-09-15T12:31:29.583Z,25.86
2022-09-15T12:34:36.612Z,25.77
2022-09-15T12:37:44.593Z,25.90
2022-09-15T12:40:57.009Z,26.01
2022-09-15T12:44:05.453Z,26.17
2022-09-15T12:47:18.575Z,26.44
2022-09-15T12:50:27.328Z,26.64
2022-09-15T12:53:32.277Z,26.52
2022-09-15T12:56:34.956Z,26.28
2022-09-15T12:59:37.631Z,26.20
2022-09-15T13:02:46.481Z,25.92
2022-09-15T13:05:49.045Z,25.72
2022-09-15T13:08:53.659Z,25.45
2022-09-15T13:11:56.679Z,25.28
2022-09-15T13:15:01.718Z,24.52
2022-09-15T13:18:05.671Z,22.13
2022-09-15T13:21:12.769Z,20.71
2022-09-15T13:24:22.194Z,20.02
2022-09-15T13:27:45.122Z,19.90
2022-09-15T13:31:00.442Z,19.95
2022-09-15T13:41:22.330Z,20.18
2022-09-15T13:44:47.471Z,20.23
2022-09-15T13:48:10.334Z,20.22
2022-09-15T13:51:23.319Z,20.28
2022-09-15T13:54:25.751Z,20.36
2022-09-15T14:00:51.793Z,20.39
2022-09-15T14:04:00.731Z,20.39
2022-09-15T14:07:03.259Z,20.42
2022-09-15T14:10:06.900Z,20.48
2022-09-15T14:13:13.243Z,20.47
2022-09-15T14:16:24.803Z,20.53
2022-09-15T14:19:33.864Z,20.57
2022-09-15T14:22:40.838Z,20.65
2022-09-15T14:25:45.764Z,20.63
2022-09-15T14:28:52.989Z,20.63
2022-09-15T14:31:59.798Z,20.64
2022-09-15T14:35:05.499Z,20.65
2022-09-15T14:38:19.314Z,20.66
2022-09-15T14:41:22.678Z,20.65
2022-09-15T14:48:01.416Z,20.52
2022-09-15T14:51:24.088Z,20.26
2022-09-15T14:54:29.874Z,20.29
2022-09-15T14:57:33.630Z,20.16
2022-09-15T15:00:55.171Z,20.10
2022-09-15T15:03:57.617Z,20.04
2022-09-15T15:07:07.764Z,19.86
2022-09-15T15:10:21.977Z,19.90
2022-09-15T15:13:24.672Z,19.94
2022-09-15T15:16:29.877Z,19.99
2022-09-15T15:19:35.359Z,20.08
2022-09-15T15:22:39.551Z,20.06
2022-09-15T15:25:42.560Z,20.10
2022-09-15T15:28:45.760Z,20.10
2022-09-15T15:31:48.381Z,20.12
2022-09-15T15:34:52.680Z,20.11
2022-09-15T15:38:14.233Z,20.09
2022-09-15T15:41:27.677Z,20.06
2022-09-15T15:44:31.315Z,20.29
2022-09-15T15:47:36.383Z,20.29
2022-09-15T15:50:38.953Z,20.37
2022-09-15T15:53:42.724Z,20.19
2022-09-15T15:56:45.352Z,20.24
2022-09-15T15:59:48.042Z,20.14
2022-09-15T16:02:54.809Z,19.92
2022-09-15T16:05:58.442Z,19.80
2022-09-15T16:09:01.415Z,19.72
2022-09-15T16:12:05.428Z,19.59
2022-09-15T16:15:15.815Z,19.73
2022-09-15T16:18:18.853Z,19.58
2022-09-15T16:21:26.184Z,19.44
2022-09-15T16:24:28.957Z,19.50
2022-09-15T16:27:31.341Z,19.42
2022-09-15T16:30:34.193Z,19.39
2022-09-15T16:33:38.261Z,19.42
2022-09-15T16:36:41.102Z,19.50
2022-09-15T16:39:43.412Z,19.62
2022-09-15T16:42:46.885Z,19.66
2022-09-15T16:45:50.541Z,19.82
2022-09-15T16:48:54.690Z,19.62
2022-09-15T16:51:57.119Z,19.56
2022-09-15T16:54:59.804Z,19.74
2022-09-15T16:58:02.719Z,19.65
2022-09-15T17:01:05.675Z,19.62
2022-09-15T17:04:16.732Z,19.66
2022-09-15T17:07:19.604Z,19.66
2022-09-15T17:10:22.272Z,19.69
2022-09-15T17:13:29.374Z,19.76
2022-09-15T17:16:32.706Z,19.63
2022-09-15T17:19:37.639Z,19.67
2022-09-15T17:22:40.074Z,19.55
2022-09-15T17:25:48.958Z,19.52
2022-09-15T17:28:51.607Z,19.51
2022-09-15T17:31:54.278Z,19.56
2022-09-15T17:34:56.542Z,19.56
2022-09-15T17:37:59.355Z,19.56
2022-09-15T17:41:03.058Z,19.54
2022-09-15T17:44:12.855Z,19.53
2022-09-15T17:47:16.766Z,19.53
2022-09-15T17:50:23.305Z,19.53
2022-09-15T17:53:28.627Z,19.51
2022-09-15T17:56:33.000Z,19.72
2022-09-15T17:59:35.406Z,19.74
2022-09-15T18:02:40.022Z,19.54
2022-09-15T18:05:42.733Z,19.49
2022-09-15T18:08:45.293Z,19.49
2022-09-15T18:11:47.935Z,19.49
2022-09-15T18:14:50.523Z,19.49
2022-09-15T18:17:55.229Z,19.49
2022-09-15T18:20:58.341Z,19.46
2022-09-15T18:24:02.060Z,19.50
2022-09-15T18:27:04.921Z,19.55
2022-09-15T18:30:07.770Z,19.50
2022-09-15T18:33:18.279Z,19.48
2022-09-15T18:36:21.183Z,19.45
2022-09-15T18:39:23.581Z,19.49
2022-09-15T18:42:28.491Z,19.42
2022-09-15T18:45:33.718Z,19.34
2022-09-15T18:48:36.297Z,19.33
2022-09-15T18:51:51.224Z,19.33
2022-09-15T18:54:54.402Z,19.29
2022-09-15T18:58:00.813Z,19.29
2022-09-15T19:01:04.991Z,19.30
2022-09-15T19:07:43.539Z,19.22
2022-09-15T19:10:47.974Z,19.21
2022-09-15T19:13:54.495Z,19.18
2022-09-15T19:16:58.462Z,19.21
2022-09-15T19:20:02.338Z,19.13
2022-09-15T19:23:07.300Z,19.12
2022-09-15T19:26:13.853Z,19.14
2022-09-15T19:29:25.349Z,19.17
2022-09-15T19:32:28.934Z,19.16
2022-09-15T19:35:31.677Z,19.18
2022-09-15T19:38:36.196Z,19.17
2022-09-15T19:41:39.107Z,19.18
2022-09-15T19:44:41.422Z,19.19
2022-09-15T19:47:44.201Z,19.22
2022-09-15T19:50:46.484Z,19.24
2022-09-15T19:53:49.376Z,19.27
2022-09-15T19:56:51.782Z,19.30
2022-09-15T19:59:58.840Z,19.41
2022-09-15T20:03:01.050Z,19.29
2022-09-15T20:06:05.884Z,19.54
2022-09-15T20:09:09.209Z,19.37
2022-09-15T20:12:11.982Z,19.26
2022-09-15T20:15:14.369Z,19.28
2022-09-15T20:18:17.943Z,19.31
2022-09-15T20:21:45.809Z,19.30
2022-09-15T20:24:47.772Z,19.28
2022-09-15T20:27:52.451Z,19.43
2022-09-15T20:31:14.894Z,19.48
2022-09-15T20:34:18.647Z,19.38
2022-09-15T20:37:23.053Z,19.31
2022-09-15T20:40:26.448Z,19.31
2022-09-15T20:43:29.278Z,19.28
2022-09-15T20:46:31.572Z,19.30
2022-09-15T20:49:34.831Z,19.30
2022-09-15T20:52:38.514Z,19.30
2022-09-15T20:55:47.815Z,19.28
2022-09-15T20:58:50.174Z,19.31
2022-09-15T21:01:52.897Z,19.56
2022-09-15T21:04:56.668Z,19.48
2022-09-15T21:07:59.992Z,19.32
2022-09-15T21:11:02.436Z,19.33
2022-09-15T21:14:05.542Z,19.35
2022-09-15T21:17:08.179Z,19.41
2022-09-15T21:20:10.906Z,19.31
2022-09-15T21:23:13.231Z,19.29
2022-09-15T21:26:17.185Z,19.30
2022-09-15T21:29:19.963Z,19.30
2022-09-15T21:32:24.311Z,19.36
2022-09-15T21:35:26.536Z,19.32
2022-09-15T21:38:29.601Z,19.33
2022-09-15T21:41:31.859Z,19.31
2022-09-15T21:44:34.603Z,19.33
2022-09-15T21:47:37.563Z,19.32
2022-09-15T21:50:50.692Z,19.30
2022-09-15T21:53:54.050Z,19.28
2022-09-15T21:56:57.506Z,19.24
2022-09-15T22:00:00.079Z,19.24
2022-09-15T22:03:02.842Z,19.23
2022-09-15T22:06:05.484Z,19.20
2022-09-15T22:09:09.473Z,19.34
2022-09-15T22:12:12.026Z,19.21
2022-09-15T22:15:15.684Z,19.21
2022-09-15T22:18:18.574Z,19.24
2022-09-15T22:21:22.352Z,19.13
2022-09-15T22:24:24.938Z,19.28
2022-09-15T22:27:27.342Z,19.12
2022-09-15T22:30:29.840Z,19.04
2022-09-15T22:33:32.565Z,19.03
2022-09-15T22:36:35.055Z,19.01
2022-09-15T22:39:58.125Z,19.07
2022-09-15T22:42:59.861Z,19.01
2022-09-15T22:46:02.346Z,19.01
2022-09-15T22:49:04.848Z,19.03
2022-09-15T22:52:07.296Z,19.03
2022-09-15T22:55:09.819Z,19.03
2022-09-15T22:58:12.212Z,19.02
2022-09-15T23:01:19.318Z,19.02
2022-09-15T23:04:21.796Z,18.98
2022-09-15T23:07:24.273Z,18.98
2022-09-15T23:10:27.022Z,18.96
2022-09-15T23:13:29.595Z,18.95
2022-09-15T23:16:32.337Z,18.93
2022-09-15T23:19:34.970Z,18.94
2022-09-15T23:22:37.561Z,18.90
2022-09-15T23:25:40.487Z,18.89
2022-09-15T23:28:43.019Z,18.92
2022-09-15T23:31:45.817Z,18.89
2022-09-15T23:34:48.974Z,18.88
2022-09-15T23:37:51.455Z,18.90
2022-09-15T23:40:53.872Z,18.86
2022-09-15T23:43:57.911Z,18.85
2022-09-15T23:47:00.413Z,18.84
2022-09-15T23:50:03.036Z,18.83
2022-09-15T23:53:05.979Z,18.76
2022-09-15T23:56:08.645Z,18.71
2022-09-15T23:59:11.215Z,18.71
